createdAt,value
2017-12-02T00:00:28.905Z,3.46
2017-12-02T00:02:56.420Z,3.45
2017-12-02T00:05:23.942Z,3.41
2017-12-02T00:07:51.456Z,3.43
2017-12-02T00:10:18.972Z,3.41
2017-12-02T00:12:46.594Z,3.46
2017-12-02T00:15:14.110Z,3.44
2017-12-02T00:17:41.725Z,3.45
2017-12-02T00:20:09.246Z,3.43
2017-12-02T00:22:36.767Z,3.46
2017-12-02T00:25:04.388Z,3.49
2017-12-02T00:27:31.958Z,3.49
2017-12-02T00:29:59.507Z,3.40
2017-12-02T00:32:27.016Z,3.49
2017-12-02T00:34:54.527Z,3.51
2017-12-02T00:37:22.687Z,3.52
2017-12-02T00:39:50.224Z,3.50
2017-12-02T00:42:17.826Z,3.42
2017-12-02T00:44:45.406Z,3.51
2017-12-02T00:47:12.977Z,3.54
2017-12-02T00:49:40.500Z,3.51
2017-12-02T00:52:08.059Z,3.57
2017-12-02T00:54:35.583Z,3.61
2017-12-02T00:57:03.186Z,3.57
2017-12-02T00:59:30.739Z,3.62
2017-12-02T01:01:58.253Z,3.62
2017-12-02T01:04:25.771Z,3.59
2017-12-02T01:06:53.295Z,3.63
2017-12-02T01:09:20.873Z,3.68
2017-12-02T01:11:48.405Z,3.58
2017-12-02T01:14:15.918Z,3.57
2017-12-02T01:16:43.419Z,3.51
2017-12-02T01:19:10.951Z,3.52
2017-12-02T01:21:38.473Z,3.53
2017-12-02T01:24:05.992Z,3.58
2017-12-02T01:26:33.529Z,3.47
2017-12-02T01:29:01.048Z,3.52
2017-12-02T01:31:28.569Z,3.50
2017-12-02T01:33:56.083Z,3.49
2017-12-02T01:36:23.598Z,3.47
2017-12-02T01:38:51.112Z,3.41
2017-12-02T01:41:18.632Z,3.47
2017-12-02T01:43:46.141Z,3.51
2017-12-02T01:46:13.706Z,3.51
2017-12-02T01:48:41.320Z,3.52
2017-12-02T01:51:08.837Z,3.50
2017-12-02T01:53:36.437Z,3.53
2017-12-02T04:30:21.558Z,3.55
2017-12-02T04:32:49.079Z,3.56
2017-12-02T04:35:16.603Z,3.61
2017-12-02T04:37:44.117Z,3.65
2017-12-02T04:40:11.624Z,3.63
2017-12-02T04:42:39.135Z,3.63
2017-12-02T04:45:06.742Z,3.62
2017-12-02T04:47:34.288Z,3.64
2017-12-02T04:50:01.805Z,3.65
2017-12-02T04:52:29.411Z,3.66
2017-12-02T04:54:56.974Z,3.61
2017-12-02T04:57:24.489Z,3.63
2017-12-02T04:59:52.013Z,3.60
2017-12-02T05:02:19.530Z,3.63
2017-12-02T05:04:47.050Z,3.66
2017-12-02T05:07:14.576Z,3.70
2017-12-02T05:09:42.098Z,3.73
2017-12-02T05:12:09.632Z,3.72
2017-12-02T05:14:37.250Z,3.70
2017-12-02T05:17:04.761Z,3.77
2017-12-02T05:19:32.370Z,3.76
2017-12-02T05:21:59.930Z,3.75
2017-12-02T05:24:27.452Z,3.77
2017-12-02T05:26:55.049Z,3.80
2017-12-02T05:29:22.568Z,3.76
2017-12-02T05:31:50.077Z,3.76
2017-12-02T05:34:17.620Z,3.80
2017-12-02T05:36:45.133Z,3.74
2017-12-02T05:39:12.642Z,3.71
2017-12-02T05:41:40.146Z,3.63
2017-12-02T05:44:07.776Z,3.68
2017-12-02T05:46:35.293Z,3.61
2017-12-02T05:49:02.884Z,3.64
2017-12-02T05:51:30.393Z,3.64
2017-12-02T05:53:58.001Z,3.64
2017-12-02T05:56:25.506Z,3.58
2017-12-02T05:58:53.022Z,3.60
2017-12-02T06:01:20.582Z,3.61
2017-12-02T06:03:48.088Z,3.59
2017-12-02T06:06:15.607Z,3.53
2017-12-02T06:08:43.123Z,3.50
2017-12-02T06:11:10.645Z,3.45
2017-12-02T06:13:38.161Z,3.48
2017-12-02T06:16:05.673Z,3.52
2017-12-02T06:18:33.194Z,3.45
2017-12-02T06:21:00.698Z,3.43
2017-12-02T06:23:28.320Z,3.40
2017-12-02T06:25:55.841Z,3.43
2017-12-02T06:28:23.443Z,3.47
2017-12-02T06:30:51.029Z,3.47
2017-12-02T06:33:18.552Z,3.44
2017-12-02T06:35:46.068Z,3.52
2017-12-02T06:38:13.576Z,3.54
2017-12-02T06:40:41.102Z,3.55
2017-12-02T06:43:08.617Z,3.56
2017-12-02T06:45:36.261Z,3.63
2017-12-02T06:48:03.781Z,3.63
2017-12-02T06:50:31.374Z,3.62
2017-12-02T06:52:58.890Z,3.61
2017-12-02T06:55:26.402Z,3.65
2017-12-02T06:57:53.917Z,3.62
2017-12-02T07:00:21.442Z,3.64
2017-12-02T07:02:48.975Z,3.70
2017-12-02T07:05:16.492Z,3.64
2017-12-02T07:07:44.017Z,3.66
2017-12-02T07:10:11.534Z,3.67
2017-12-02T07:12:39.048Z,3.64
2017-12-02T07:15:06.563Z,3.65
2017-12-02T07:17:34.086Z,3.61
2017-12-02T07:20:01.605Z,3.69
2017-12-02T07:22:29.121Z,3.81
2017-12-02T07:24:56.667Z,3.86
2017-12-02T07:27:24.180Z,3.90
2017-12-02T07:29:51.726Z,3.90
2017-12-02T07:32:19.283Z,3.95
2017-12-02T07:34:46.805Z,4.04
2017-12-02T07:37:14.332Z,4.02
2017-12-02T07:39:41.844Z,4.08
2017-12-02T07:42:09.357Z,4.07
2017-12-02T07:44:36.869Z,4.06
2017-12-02T07:47:04.377Z,3.91
2017-12-02T07:49:32.001Z,4.00
2017-12-02T07:54:52.693Z,3.94
2017-12-02T07:57:20.285Z,3.97
2017-12-02T07:59:47.809Z,4.14
2017-12-02T08:02:15.328Z,4.02
2017-12-02T08:04:42.846Z,4.14
2017-12-02T08:07:10.373Z,4.34
2017-12-02T08:09:37.898Z,4.32
2017-12-02T08:12:05.412Z,4.38
2017-12-02T08:14:32.935Z,4.36
2017-12-02T08:17:00.465Z,4.27
2017-12-02T08:19:28.000Z,4.17
2017-12-02T08:21:55.515Z,4.22
2017-12-02T08:24:23.030Z,4.23
2017-12-02T08:26:50.552Z,4.11
2017-12-02T08:29:18.079Z,4.12
2017-12-02T08:31:45.602Z,4.24
2017-12-02T08:34:13.130Z,4.30
2017-12-02T08:36:40.666Z,4.26
2017-12-02T08:39:08.177Z,4.29
2017-12-02T08:41:35.691Z,4.24
2017-12-02T08:44:03.220Z,4.18
2017-12-02T08:46:30.738Z,4.21
2017-12-02T08:48:58.260Z,4.30
2017-12-02T08:51:25.804Z,4.34
2017-12-02T08:53:53.327Z,4.41
2017-12-02T08:56:20.851Z,4.38
2017-12-02T08:58:48.380Z,4.33
2017-12-02T09:01:15.901Z,4.32
2017-12-02T09:03:43.427Z,4.26
2017-12-02T09:06:10.948Z,4.24
2017-12-02T09:08:38.487Z,4.14
2017-12-02T09:11:06.007Z,4.31
2017-12-02T09:13:33.553Z,4.40
2017-12-02T09:16:01.190Z,4.28
2017-12-02T09:18:28.719Z,4.36
2017-12-02T09:20:56.247Z,4.47
2017-12-02T09:23:23.773Z,4.70
2017-12-02T09:25:51.308Z,4.83
2017-12-02T09:28:18.835Z,4.74
2017-12-02T09:30:46.449Z,4.97
2017-12-02T09:33:13.980Z,5.15
2017-12-02T09:35:41.502Z,5.26
2017-12-02T09:38:09.025Z,5.18
2017-12-02T09:40:36.546Z,5.32
2017-12-02T09:43:04.081Z,5.18
2017-12-02T09:45:31.594Z,5.25
2017-12-02T09:47:59.110Z,5.32
2017-12-02T09:50:26.654Z,5.38
2017-12-02T09:52:54.182Z,5.72
2017-12-02T09:55:21.698Z,5.76
2017-12-02T09:57:49.233Z,5.97
2017-12-02T10:00:16.750Z,6.06
2017-12-02T10:02:44.274Z,6.23
2017-12-02T10:05:12.219Z,6.55
2017-12-02T10:07:39.735Z,6.89
2017-12-02T10:10:07.249Z,6.81
2017-12-02T10:12:34.760Z,6.51
2017-12-02T10:15:02.296Z,6.99
2017-12-02T10:17:29.820Z,6.84
2017-12-02T10:19:57.346Z,6.79
2017-12-02T10:22:24.871Z,6.86
2017-12-02T10:24:52.388Z,6.95
2017-12-02T10:27:19.917Z,6.97
2017-12-02T10:29:47.437Z,7.09
2017-12-02T10:32:14.966Z,7.01
2017-12-02T10:34:42.486Z,6.82
2017-12-02T10:37:10.012Z,6.81
2017-12-02T10:39:37.543Z,6.77
2017-12-02T10:42:05.071Z,6.83
2017-12-02T10:44:32.603Z,6.87
2017-12-02T10:47:00.149Z,7.08
2017-12-02T10:49:27.682Z,7.38
2017-12-02T10:51:55.201Z,7.45
2017-12-02T10:54:22.716Z,7.64
2017-12-02T10:56:50.234Z,7.03
2017-12-02T10:59:17.748Z,6.73
2017-12-02T11:01:45.274Z,6.55
2017-12-02T11:04:12.793Z,6.29
2017-12-02T11:06:40.325Z,6.08
2017-12-02T11:09:07.847Z,5.93
2017-12-02T11:11:35.361Z,5.80
2017-12-02T11:14:02.873Z,5.55
2017-12-02T11:16:30.388Z,5.51
2017-12-02T11:18:57.914Z,5.34
2017-12-02T11:21:25.439Z,5.52
2017-12-02T11:23:52.953Z,5.68
2017-12-02T11:26:20.479Z,5.56
2017-12-02T11:28:48.000Z,5.58
2017-12-02T11:31:15.514Z,5.67
2017-12-02T11:33:43.042Z,5.69
2017-12-02T11:36:10.578Z,5.79
2017-12-02T11:38:38.108Z,5.81
2017-12-02T11:41:05.631Z,5.58
2017-12-02T11:43:33.149Z,5.79
2017-12-02T11:46:00.674Z,5.88
2017-12-02T11:48:28.199Z,5.94
2017-12-02T11:50:55.726Z,5.82
2017-12-02T11:53:23.259Z,5.70
2017-12-02T11:55:50.773Z,5.80
2017-12-02T11:58:18.297Z,5.82
2017-12-02T12:00:45.825Z,5.68
2017-12-02T12:03:13.358Z,5.72
2017-12-02T12:05:40.875Z,5.82
2017-12-02T12:08:08.398Z,5.59
2017-12-02T12:10:35.931Z,5.62
2017-12-02T12:13:03.453Z,5.46
2017-12-02T12:15:30.980Z,5.67
2017-12-02T12:17:58.500Z,5.78
2017-12-02T12:20:26.017Z,5.80
2017-12-02T12:22:53.543Z,5.62
2017-12-02T12:25:21.069Z,5.70
2017-12-02T12:27:48.600Z,5.68
2017-12-02T12:30:16.130Z,5.42
2017-12-02T12:32:43.671Z,5.52
2017-12-02T12:35:11.193Z,5.62
2017-12-02T12:37:38.722Z,5.35
2017-12-02T12:40:06.245Z,5.66
2017-12-02T12:42:33.762Z,5.65
2017-12-02T12:45:01.285Z,5.79
2017-12-02T12:47:28.817Z,5.47
2017-12-02T12:49:56.337Z,5.41
2017-12-02T12:52:23.856Z,5.42
2017-12-02T12:54:51.399Z,5.40
2017-12-02T12:57:19.255Z,5.28
2017-12-02T12:59:46.906Z,5.40
2017-12-02T13:02:14.615Z,5.12
2017-12-02T13:04:43.437Z,5.25
2017-12-02T13:07:18.498Z,5.16
2017-12-02T13:09:46.108Z,5.40
2017-12-02T13:12:13.636Z,5.46
2017-12-02T13:14:41.168Z,5.18
2017-12-02T13:17:08.694Z,5.27
2017-12-02T13:19:36.213Z,5.14
2017-12-02T13:22:03.735Z,5.23
2017-12-02T13:24:31.259Z,5.26
2017-12-02T13:26:58.790Z,4.94
2017-12-02T13:29:26.322Z,5.02
2017-12-02T13:31:53.850Z,5.10
2017-12-02T13:34:21.377Z,5.07
2017-12-02T13:36:48.899Z,4.87
2017-12-02T13:39:16.452Z,4.88
2017-12-02T13:41:43.978Z,4.93
2017-12-02T13:44:11.502Z,4.95
2017-12-02T13:46:39.033Z,4.97
2017-12-02T13:49:06.572Z,4.98
2017-12-02T13:51:34.092Z,4.83
2017-12-02T13:54:01.619Z,4.76
2017-12-02T13:56:29.178Z,4.89
2017-12-02T13:58:58.258Z,4.73
2017-12-02T14:01:25.952Z,4.77
2017-12-02T14:03:53.618Z,4.73
2017-12-02T14:06:21.660Z,4.69
2017-12-02T14:08:49.997Z,4.64
2017-12-02T14:11:17.665Z,4.70
2017-12-02T14:13:45.192Z,4.65
2017-12-02T14:16:12.839Z,4.57
2017-12-02T14:18:40.363Z,4.58
2017-12-02T14:21:07.909Z,4.54
2017-12-02T14:23:35.451Z,4.44
2017-12-02T14:26:03.428Z,4.38
2017-12-02T14:28:30.964Z,4.40
2017-12-02T14:30:58.942Z,4.42
2017-12-02T14:33:26.477Z,4.34
2017-12-02T14:35:54.007Z,4.38
2017-12-02T14:38:21.524Z,4.34
2017-12-02T14:40:49.107Z,4.29
2017-12-02T14:43:16.658Z,4.33
2017-12-02T14:45:44.247Z,4.36
2017-12-02T14:48:11.793Z,4.41
2017-12-02T14:50:39.310Z,4.30
2017-12-02T14:53:06.927Z,4.18
2017-12-02T14:55:34.458Z,4.18
2017-12-02T14:58:03.413Z,4.23
2017-12-02T15:00:30.981Z,4.09
2017-12-02T15:02:58.503Z,4.06
2017-12-02T15:05:26.042Z,4.06
2017-12-02T15:07:53.591Z,4.10
2017-12-02T15:10:21.177Z,3.98
2017-12-02T15:12:48.705Z,3.96
2017-12-02T15:15:16.221Z,4.00
2017-12-02T15:17:43.741Z,4.05
2017-12-02T15:20:11.286Z,4.07
2017-12-02T15:22:38.818Z,4.05
2017-12-02T15:25:06.369Z,4.05
2017-12-02T15:27:33.892Z,3.96
2017-12-02T15:30:01.488Z,3.91
2017-12-02T15:32:28.979Z,3.85
2017-12-02T15:34:56.508Z,3.82
2017-12-02T15:37:24.030Z,3.85
2017-12-02T15:39:51.585Z,3.79
2017-12-02T15:42:19.122Z,3.86
2017-12-02T15:44:46.641Z,3.89
2017-12-02T15:47:14.189Z,3.92
2017-12-02T15:49:41.723Z,3.81
2017-12-02T15:52:09.288Z,3.76
2017-12-02T15:54:36.807Z,3.73
2017-12-02T15:57:04.328Z,3.79
2017-12-02T15:59:31.843Z,3.76
2017-12-02T16:01:59.684Z,3.78
2017-12-02T16:04:27.250Z,3.76
2017-12-02T16:06:54.774Z,3.84
2017-12-02T16:09:22.346Z,3.86
2017-12-02T16:11:49.881Z,3.84
2017-12-02T16:14:17.401Z,3.89
2017-12-02T16:16:44.926Z,3.78
2017-12-02T16:19:12.455Z,3.84
2017-12-02T16:21:40.011Z,3.78
2017-12-02T16:24:07.615Z,3.82
2017-12-02T16:26:35.313Z,3.80
2017-12-02T16:29:02.871Z,3.78
2017-12-02T16:31:30.514Z,3.73
2017-12-02T16:33:58.251Z,3.68
2017-12-02T16:36:27.096Z,3.77
2017-12-02T16:38:55.335Z,3.77
2017-12-02T16:41:23.419Z,3.75
2017-12-02T16:43:51.032Z,3.78
2017-12-02T16:46:18.802Z,3.80
2017-12-02T16:48:46.489Z,3.83
2017-12-02T16:51:14.166Z,3.82
2017-12-02T16:53:43.567Z,3.80
2017-12-02T16:56:11.274Z,3.82
2017-12-02T16:58:39.017Z,3.79
2017-12-02T17:01:06.646Z,3.80
2017-12-02T17:03:34.203Z,3.79
2017-12-02T17:06:01.751Z,3.84
2017-12-02T17:08:29.316Z,3.85
2017-12-02T17:10:56.834Z,3.84
2017-12-02T17:13:24.356Z,3.75
2017-12-02T17:15:52.094Z,3.78
2017-12-02T17:18:19.831Z,3.80
2017-12-02T17:20:47.670Z,3.81
2017-12-02T17:23:15.686Z,3.81
2017-12-02T17:25:43.618Z,3.79
2017-12-02T17:28:11.407Z,3.76
2017-12-02T17:30:39.232Z,3.75
2017-12-02T17:33:06.750Z,3.74
2017-12-02T17:35:34.265Z,3.79
2017-12-02T17:38:01.785Z,3.73
2017-12-02T17:40:29.301Z,3.77
2017-12-02T17:42:56.834Z,3.75
2017-12-02T17:45:24.350Z,3.68
2017-12-02T17:47:51.861Z,3.71
2017-12-02T17:50:19.376Z,3.64
2017-12-02T17:52:46.895Z,3.59
2017-12-02T17:55:14.414Z,3.61
2017-12-02T17:57:41.933Z,3.65
2017-12-02T18:00:09.454Z,3.62
2017-12-02T18:02:36.969Z,3.59
2017-12-02T18:05:04.485Z,3.66
2017-12-02T18:07:32.005Z,3.59
2017-12-02T18:09:59.525Z,3.56
2017-12-02T18:12:27.048Z,3.53
2017-12-02T18:14:54.566Z,3.53
2017-12-02T18:17:22.086Z,3.53
2017-12-02T18:19:49.611Z,3.42
2017-12-02T18:22:17.139Z,3.33
2017-12-02T18:24:44.664Z,3.26
2017-12-02T18:27:12.190Z,3.32
2017-12-02T18:29:39.704Z,3.28
2017-12-02T18:32:07.224Z,3.22
2017-12-02T18:34:34.740Z,3.22
2017-12-02T18:37:02.263Z,3.18
2017-12-02T18:39:29.799Z,3.09
2017-12-02T18:41:57.317Z,3.07
2017-12-02T18:44:24.840Z,3.11
2017-12-02T18:46:52.360Z,3.14
2017-12-02T18:49:19.908Z,3.15
2017-12-02T18:51:47.444Z,3.16
2017-12-02T18:54:14.957Z,3.09
2017-12-02T18:56:42.470Z,3.08
2017-12-02T18:59:09.982Z,3.08
2017-12-02T19:01:37.513Z,3.00
2017-12-02T19:04:05.046Z,3.02
2017-12-02T19:06:32.569Z,2.99
2017-12-02T19:09:00.308Z,2.92
2017-12-02T19:11:27.843Z,2.94
2017-12-02T19:13:55.411Z,2.84
2017-12-02T19:16:22.997Z,2.82
2017-12-02T19:18:50.558Z,2.77
2017-12-02T19:21:18.073Z,2.70
2017-12-02T19:23:45.783Z,2.70
2017-12-02T19:26:13.348Z,2.64
2017-12-02T19:28:40.896Z,2.68
2017-12-02T19:31:08.415Z,2.64
2017-12-02T19:33:35.936Z,2.57
2017-12-02T19:36:03.453Z,2.53
2017-12-02T19:38:30.990Z,2.44
2017-12-02T19:40:58.509Z,2.40
2017-12-02T19:43:26.056Z,2.36
2017-12-02T19:45:53.582Z,2.40
2017-12-02T19:48:21.143Z,2.36
2017-12-02T19:50:48.670Z,2.37
2017-12-02T19:53:16.299Z,2.32
2017-12-02T19:55:43.817Z,2.29
2017-12-02T19:58:11.429Z,2.19
2017-12-02T20:00:41.409Z,2.16
2017-12-02T20:03:08.933Z,2.14
2017-12-02T20:05:36.552Z,2.09
2017-12-02T20:08:04.069Z,2.02
2017-12-02T20:10:31.610Z,1.97
2017-12-02T20:12:59.144Z,1.82
2017-12-02T20:15:26.661Z,1.81
2017-12-02T20:17:54.367Z,1.79
2017-12-02T20:20:21.877Z,1.77
2017-12-02T20:22:49.435Z,1.69
2017-12-02T20:25:16.958Z,1.68
2017-12-02T20:27:44.604Z,1.56
2017-12-02T20:30:12.156Z,1.52
2017-12-02T20:32:39.677Z,1.48
2017-12-02T20:35:07.212Z,1.50
2017-12-02T20:37:34.943Z,1.51
2017-12-02T20:40:02.472Z,1.59
2017-12-02T20:42:30.026Z,1.58
2017-12-02T20:44:57.638Z,1.60
2017-12-02T20:47:25.292Z,1.68
2017-12-02T20:49:52.824Z,1.77
2017-12-02T20:52:20.406Z,1.87
2017-12-02T20:54:48.129Z,1.90
2017-12-02T20:57:15.657Z,1.90
2017-12-02T20:59:43.179Z,1.80
2017-12-02T21:02:10.757Z,1.79
2017-12-02T21:04:38.277Z,1.89
2017-12-02T21:07:05.810Z,1.98
2017-12-02T21:09:33.326Z,1.95
2017-12-02T21:12:00.852Z,1.86
2017-12-02T21:14:28.420Z,1.90
2017-12-02T21:16:55.934Z,1.98
2017-12-02T21:19:23.464Z,1.84
2017-12-02T21:21:50.980Z,1.80
2017-12-02T21:24:18.518Z,1.87
2017-12-02T21:26:46.040Z,1.76
2017-12-02T21:29:13.559Z,1.75
2017-12-02T21:31:41.091Z,1.62
2017-12-02T21:34:08.604Z,1.70
2017-12-02T21:36:36.323Z,1.68
2017-12-02T21:39:03.845Z,1.70
2017-12-02T21:41:31.484Z,1.67
2017-12-02T21:43:58.997Z,1.78
2017-12-02T21:46:26.509Z,1.75
2017-12-02T21:48:54.024Z,1.78
2017-12-02T21:51:21.538Z,1.79
2017-12-02T21:53:49.054Z,1.88
2017-12-02T21:56:16.579Z,1.80
2017-12-02T21:58:44.099Z,1.81
2017-12-02T22:01:11.617Z,1.79
2017-12-02T22:03:39.132Z,1.81
2017-12-02T22:06:06.672Z,1.84
2017-12-02T22:08:34.186Z,1.85
2017-12-02T22:11:01.788Z,1.82
2017-12-02T22:13:29.307Z,1.86
2017-12-02T22:15:56.820Z,1.89
2017-12-02T22:18:24.374Z,1.87
2017-12-02T22:20:51.927Z,1.81
2017-12-02T22:23:19.482Z,1.88
2017-12-02T22:25:47.118Z,1.90
2017-12-02T22:28:14.635Z,1.93
2017-12-02T22:30:42.209Z,1.93
2017-12-02T22:33:09.723Z,1.98
2017-12-02T22:35:37.247Z,1.96
2017-12-02T22:38:04.773Z,1.94
2017-12-02T22:40:32.298Z,1.85
2017-12-02T22:42:59.815Z,1.80
2017-12-02T22:45:27.334Z,1.77
2017-12-02T22:47:55.056Z,1.66
2017-12-02T22:50:22.567Z,1.56
2017-12-02T22:52:50.137Z,1.52
2017-12-02T22:55:17.653Z,1.43
2017-12-02T22:57:46.104Z,1.43
2017-12-02T23:00:13.616Z,1.33
2017-12-02T23:02:41.153Z,1.33
2017-12-02T23:05:08.678Z,1.28
2017-12-02T23:07:36.202Z,1.27
2017-12-02T23:10:03.733Z,1.22
2017-12-02T23:12:31.317Z,1.13
2017-12-02T23:14:59.017Z,1.07
2017-12-02T23:17:26.566Z,1.10
2017-12-02T23:19:54.169Z,1.08
2017-12-02T23:22:22.518Z,1.03
2017-12-02T23:24:50.033Z,0.96
2017-12-02T23:27:17.550Z,0.93
2017-12-02T23:29:45.062Z,0.91
2017-12-02T23:32:12.569Z,0.85
2017-12-02T23:34:40.087Z,0.87
2017-12-02T23:37:08.346Z,0.83
2017-12-02T23:39:36.383Z,0.88
2017-12-02T23:42:03.908Z,0.90
2017-12-02T23:44:32.368Z,0.86
2017-12-02T23:47:00.241Z,0.85
2017-12-02T23:49:27.778Z,0.86
2017-12-02T23:51:55.345Z,0.80
2017-12-02T23:54:22.905Z,0.80
2017-12-02T23:56:50.415Z,0.79
2017-12-02T23:59:17.937Z,0.76
